Yelm, WA (98597)

10:51 PM PDT on October 24, 2014 (GMT -0700)
Mill Pond Estates | Change Station
CLOSE
Current Station
Personal Weather Station
Location: Yelm, WA
Elevation: 345 ft
Nearby Weather Stations

Elev 345 ft 46.94 °N, 122.61 °W | Updated 3 seconds ago

Overcast
Overcast
50.4 °F
Feels Like 50.4 °F
N
0.0
Wind Variable Wind from North
Gusts 2.0 mph

Today
High -- | Low -- °F
--% Chance of Precip.
Yesterday
High -- | Low -- °F
Precip. -- in
7:41 AM 6:06 PM
New Moon, 2% visible
Pressure 29.77 in
Visibility 10.0 miles
Clouds Few 500 ft
Scattered Clouds 3300 ft
Overcast 5500 ft
Dew Point 49 °F
Humidity 96%
Rainfall 0.45 in
Snow Depth Not available.
UV 0 out of 12
Pollen .40 out of 12
PM2.5 Good
Flu Activity Sporadic
SPECI KGRF 250529Z AUTO 02009KT 10SM -RA FEW005 SCT033 OVC055 11/11 A2977 RMK AO2 $

More Conditions Fewer Conditions

Pressure 29.77 in
Visibility 10.0 miles
Clouds Few 500 ft
Scattered Clouds 3300 ft
Overcast 5500 ft
Dew Point 49 °F
Humidity 96%
Rainfall 0.45 in
Snow Depth Not available.
UV 0 out of 12
Pollen .40 out of 12
PM2.5 Good
Flu Activity Sporadic
SPECI KGRF 250529Z AUTO 02009KT 10SM -RA FEW005 SCT033 OVC055 11/11 A2977 RMK AO2 $

More Conditions Fewer Conditions

10-Day Weather Forecast

Almanac

Astronomy

Oct. 24, 2014 Rise Set
Actual Time 7:41 AM PDT 6:06 PM PDT
Civil Twilight 7:09 AM PDT 6:38 PM PDT
Nautical Twilight 6:34 AM PDT 7:13 PM PDT
Astronomical Twilight 5:59 AM PDT 7:48 PM PDT
Moon 8:27 AM PDT (10/24) 6:47 PM PDT (10/24)
Length of Visible Light 11h 28m
Length of Day
10h 25m
Tomorrow will be 3m 8s shorter.
New Moon, 2% of the Moon is Illuminated
Oct 25
New Moon
Oct 30
First Quarter
Nov 6
Full
Nov 14
Last Quarter
Nov 22
New

Yesterday's Extremes

State Highs State Lows

Community

WunderPhotos

Upload Photos

1,764,785 photos uploaded!

Nearby

Air Quality

  Air Quality AQ Index Pollutant
Yesterday Good
PM2.5
Current Good
PM2.5

Snow Depth

Station Depth Elevation
Burnt Mountain 0 in 4200 ft
Spirit Lake 0 in 3120 ft
Morse Lake 1 in 5400 ft
Swift Creek 1 in 3770 ft
Rex River 0 in 4000 ft

Earthquake Activity

City Distance Mag. Time & Date
Birch Bay, Washington 133 miles 2.8 3:02 AM PDT
2014-10-24
Minimum magnitude displayed is 2.5.

Coastal Water Temperatures

Place Temperature
Port Townsend, WA 52.0 °F
Seattle, WA 55.0 °F
Friday Harbor, WA 51.1 °F
Tacoma, WA 54.0 °F

Nearby Weather Stations